Peterborough Airport
CYPQ : now visible

Airfield :











YOU CAN JOIN US ON...

 
LOGIN :

Register | Disclaimer

   EN    FR    IT 

 









Legend :    VFR   Marginal VFR   IFR   Intensive IFR   Very Intensive IFR
Visi :
Ceiling :
>= 8 km
>= 3000ft
5 to 8 km
1000 to 3000 ft
1500m to 5 km
500 to 1000 ft
800 to 1500m
200 to 500 ft
< 800m
< 200 ft
Symbols :   Thunderstorms  Fog  Heavy snow  Heavy precipitations  Wind > 20 kt






- Airport Elevation : 628 ft
- IATA code : YPQ


CYPQ - Peterborough

CURRENT METAR :
  • 261700Z AUTO 05012G17KT 1 3/4SM -SN FEW014 OVC024 M02/M03 A2992 RMK SLP140

EXPIRED METARs :
  • 261643Z AUTO 04009G15KT 2 1/4SM -SN SCT014 OVC022 M02/M03 A2993 RMK SLP145
  • 261611Z AUTO 05012G17KT 3SM -SN OVC022 M02/M04 A2993 RMK SLP146
  • 261601Z AUTO 04011G17KT 2 1/4SM -SN OVC019 M02/M04 A2993 RMK SLP144
  • 261526Z AUTO 03009KT 5SM -SN OVC016 M02/M03 A2995 RMK SLP151
  • 261500Z AUTO 04010KT 9SM -SN OVC018 M02/M04 A2995 RMK SLP153
  • 261446Z AUTO 04009KT 010V070 6SM -SN BKN016 OVC023 M02/M03 A2995 RMK SLP152

TAF TAF CYPQ
Valid from the 26 at 14:00 until the 27 at 02:00 UTC


261338Z 2614/2702 03008KT 6SM -SN SCT015 OVC025
TEMPO 2614/2616 11/2SM -SN OVC015
PROB30 2614/2616 1SM -SN VV010
FM261600 04010KT 11/2SM -SN VV012
TEMPO 2616/2623 3SM -SN OVC015
PROB40 2616/2623 3/4SM -SN VV008
FM262300 04010G20KT 3/4SM -SN VV008 RMK FCST BASED ON AUTO OBS. NXT FCST BY 262000Z



MET'MAP, your aeronautical weather chart ! - Copyright ORBIFLY December 2007 - Disclaimer

ORBIFLY MET'MAP TEAM :

Programming & Development : Alexandra Zaïnal
Concept & original design : Baudouin d'Aumeries
Assistance for programming : Marc-Olivier Méhu
Technical & hardware support : Manuel Goepfert

Contact : metmap@orbifly.com




SOURCES & CREDITS :

   NOAA       Earth
Advisory